createdAt,value
2019-03-12T00:00:48.681Z,5.56
2019-03-12T00:07:31.900Z,5.57
2019-03-12T00:17:28.924Z,5.54
2019-03-12T00:20:32.075Z,5.55
2019-03-12T00:23:35.211Z,5.48
2019-03-12T00:26:38.347Z,5.39
2019-03-12T00:29:41.435Z,5.43
2019-03-12T00:32:45.103Z,5.47
2019-03-12T00:35:48.244Z,5.46
2019-03-12T00:38:51.421Z,5.50
2019-03-12T00:41:54.747Z,5.51
2019-03-12T00:44:58.019Z,5.36
2019-03-12T00:48:01.243Z,5.43
2019-03-12T00:51:04.399Z,5.37
2019-03-12T00:54:07.639Z,5.39
2019-03-12T00:57:10.832Z,5.38
2019-03-12T01:00:15.228Z,5.41
2019-03-12T01:03:18.415Z,5.35
2019-03-12T01:06:21.602Z,5.38
2019-03-12T01:09:24.825Z,5.36
2019-03-12T01:12:28.101Z,5.39
2019-03-12T01:15:31.297Z,5.37
2019-03-12T01:18:34.611Z,5.30
2019-03-12T01:21:37.887Z,5.40
2019-03-12T01:24:41.008Z,5.32
2019-03-12T01:27:44.176Z,5.24
2019-03-12T01:30:47.383Z,5.25
2019-03-12T01:33:50.929Z,5.19
2019-03-12T01:36:54.088Z,5.17
2019-03-12T01:39:57.311Z,5.13
2019-03-12T01:43:00.466Z,5.12
2019-03-12T01:46:03.657Z,5.14
2019-03-12T01:49:06.844Z,5.20
2019-03-12T01:52:10.028Z,5.15
2019-03-12T01:55:13.121Z,5.15
2019-03-12T01:58:16.347Z,5.15
2019-03-12T02:01:19.458Z,5.17
2019-03-12T02:04:22.593Z,5.12
2019-03-12T02:07:25.809Z,5.04
2019-03-12T02:10:28.993Z,5.01
2019-03-12T02:13:32.201Z,4.95
2019-03-12T02:16:35.399Z,4.96
2019-03-12T02:19:38.594Z,4.90
2019-03-12T02:22:41.781Z,4.86
2019-03-12T02:25:44.962Z,4.86
2019-03-12T02:28:48.148Z,4.80
2019-03-12T02:31:51.345Z,4.73
2019-03-12T02:34:54.446Z,4.64
2019-03-12T02:37:57.643Z,4.61
2019-03-12T02:41:00.832Z,4.55
2019-03-12T02:44:04.052Z,4.57
2019-03-12T02:47:07.222Z,4.51
2019-03-12T02:50:10.947Z,4.45
2019-03-12T02:53:14.131Z,4.46
2019-03-12T02:56:17.332Z,4.35
2019-03-12T02:59:20.610Z,4.40
2019-03-12T03:02:23.700Z,4.42
2019-03-12T03:05:26.896Z,4.44
2019-03-12T03:08:32.200Z,4.41
2019-03-12T03:11:35.389Z,4.48
2019-03-12T03:14:39.621Z,4.38
2019-03-12T03:17:42.739Z,4.34
2019-03-12T03:20:45.953Z,4.32
2019-03-12T03:23:49.145Z,4.22
2019-03-12T03:26:52.343Z,4.22
2019-03-12T03:29:55.538Z,4.23
2019-03-12T03:32:58.756Z,4.19
2019-03-12T03:36:01.903Z,4.16
2019-03-12T03:39:05.950Z,4.09
2019-03-12T03:42:09.138Z,4.11
2019-03-12T03:45:12.380Z,4.05
2019-03-12T03:48:15.557Z,4.03
2019-03-12T03:51:18.707Z,4.00
2019-03-12T03:54:21.906Z,3.97
2019-03-12T03:57:25.108Z,3.98
2019-03-12T04:00:28.295Z,3.91
2019-03-12T04:03:31.490Z,3.88
2019-03-12T04:06:34.773Z,3.83
2019-03-12T04:09:37.880Z,3.80
2019-03-12T04:12:41.025Z,3.75
2019-03-12T04:15:44.153Z,3.74
2019-03-12T04:18:47.372Z,3.71
2019-03-12T04:21:50.661Z,3.74
2019-03-12T04:24:59.843Z,3.72
2019-03-12T04:28:02.992Z,3.70
2019-03-12T04:31:06.180Z,3.71
2019-03-12T04:34:12.830Z,3.73
2019-03-12T04:37:21.811Z,3.63
2019-03-12T04:40:28.035Z,3.62
2019-03-12T04:43:31.346Z,3.61
2019-03-12T04:46:34.535Z,3.63
2019-03-12T04:49:37.740Z,3.63
2019-03-12T04:52:40.938Z,3.64
2019-03-12T04:55:44.131Z,3.47
2019-03-12T04:58:47.343Z,3.43
2019-03-12T05:01:50.616Z,3.47
2019-03-12T05:04:53.812Z,3.53
2019-03-12T05:07:57.007Z,3.56
2019-03-12T05:11:00.157Z,3.56
2019-03-12T05:14:22.795Z,3.59
2019-03-12T05:17:28.140Z,3.49
2019-03-12T05:20:31.377Z,3.36
2019-03-12T05:23:34.574Z,3.22
2019-03-12T05:26:37.864Z,3.17
2019-03-12T05:29:40.972Z,3.20
2019-03-12T05:32:44.259Z,3.17
2019-03-12T05:35:47.468Z,3.16
2019-03-12T05:38:50.655Z,3.18
2019-03-12T05:41:53.843Z,3.29
2019-03-12T05:44:57.101Z,3.42
2019-03-12T05:48:00.144Z,3.48
2019-03-12T05:51:03.341Z,3.52
2019-03-12T05:54:06.516Z,3.55
2019-03-12T05:57:10.153Z,3.67
2019-03-12T06:00:14.303Z,3.77
2019-03-12T06:03:17.436Z,3.89
2019-03-12T06:06:20.620Z,3.98
2019-03-12T06:09:30.278Z,4.00
2019-03-12T06:12:27.728Z,4.07
2019-03-12T06:15:30.914Z,4.07
2019-03-12T06:18:34.128Z,4.04
2019-03-12T06:21:37.324Z,3.95
2019-03-12T06:24:40.539Z,3.85
2019-03-12T06:27:43.720Z,3.95
2019-03-12T06:30:52.980Z,4.06
2019-03-12T06:34:00.631Z,4.02
2019-03-12T06:37:08.011Z,4.02
2019-03-12T06:40:16.418Z,4.00
2019-03-12T06:43:26.839Z,4.04
2019-03-12T06:46:35.388Z,3.99
2019-03-12T06:49:46.165Z,3.89
2019-03-12T06:52:53.463Z,3.89
2019-03-12T06:56:05.809Z,3.96
2019-03-12T06:59:20.300Z,4.06
2019-03-12T07:02:27.753Z,3.92
2019-03-12T07:05:36.235Z,3.92
2019-03-12T07:08:45.569Z,3.96
2019-03-12T07:11:54.708Z,3.88
2019-03-12T07:15:06.071Z,4.00
2019-03-12T07:18:17.468Z,4.17
2019-03-12T07:21:25.752Z,4.26
2019-03-12T07:24:36.096Z,4.35
2019-03-12T07:27:45.002Z,4.41
2019-03-12T07:31:56.900Z,4.52
2019-03-12T07:35:05.426Z,4.68
2019-03-12T07:38:31.107Z,4.81
2019-03-12T07:41:42.470Z,4.94
2019-03-12T07:44:50.924Z,5.17
2019-03-12T07:48:15.519Z,5.32
2019-03-12T07:51:30.993Z,5.54
2019-03-12T07:54:53.348Z,5.68
2019-03-12T07:59:08.992Z,5.73
2019-03-12T08:02:15.282Z,5.86
2019-03-12T08:05:23.992Z,5.83
2019-03-12T08:09:05.987Z,6.06
2019-03-12T08:12:16.230Z,5.93
2019-03-12T08:15:24.931Z,5.95
2019-03-12T08:18:35.474Z,6.13
2019-03-12T08:21:41.599Z,6.31
2019-03-12T08:24:53.902Z,6.42
2019-03-12T08:28:02.260Z,6.69
2019-03-12T08:31:10.775Z,6.85
2019-03-12T08:34:19.432Z,6.98
2019-03-12T08:37:27.766Z,7.18
2019-03-12T08:40:38.212Z,7.17
2019-03-12T08:43:48.299Z,7.30
2019-03-12T08:46:56.972Z,7.43
2019-03-12T08:50:10.327Z,7.49
2019-03-12T08:53:20.131Z,7.46
2019-03-12T08:56:27.469Z,7.44
2019-03-12T08:59:39.691Z,7.65
2019-03-12T09:02:47.930Z,7.64
2019-03-12T09:05:56.136Z,7.85
2019-03-12T09:09:05.477Z,8.14
2019-03-12T09:12:12.822Z,8.22
2019-03-12T09:16:19.160Z,8.28
2019-03-12T09:21:30.608Z,8.73
2019-03-12T09:24:38.000Z,8.87
2019-03-12T09:27:57.570Z,9.10
2019-03-12T09:31:08.774Z,8.76
2019-03-12T09:34:27.020Z,8.66
2019-03-12T09:37:34.407Z,8.71
2019-03-12T09:40:48.772Z,8.72
2019-03-12T09:43:58.033Z,8.52
2019-03-12T09:47:12.123Z,8.81
2019-03-12T09:50:20.427Z,8.76
2019-03-12T09:53:27.737Z,8.95
2019-03-12T09:56:35.130Z,9.21
2019-03-12T09:59:46.300Z,9.10
2019-03-12T10:03:00.714Z,9.20
2019-03-12T10:06:08.068Z,9.37
2019-03-12T10:09:18.031Z,9.47
2019-03-12T10:13:00.990Z,9.46
2019-03-12T10:16:13.286Z,9.53
2019-03-12T10:19:20.978Z,9.48
2019-03-12T10:22:28.322Z,9.90
2019-03-12T10:25:35.637Z,10.09
2019-03-12T10:28:44.303Z,10.27
2019-03-12T10:31:56.585Z,10.59
2019-03-12T10:35:03.957Z,10.64
2019-03-12T10:38:26.227Z,10.76
2019-03-12T10:41:34.596Z,10.99
2019-03-12T10:44:41.912Z,11.14
2019-03-12T10:47:45.715Z,10.76
2019-03-12T10:50:48.855Z,10.91
2019-03-12T10:53:52.049Z,10.94
2019-03-12T10:56:55.230Z,10.84
2019-03-12T10:59:58.420Z,10.78
2019-03-12T11:03:02.061Z,10.64
2019-03-12T11:06:05.220Z,10.60
2019-03-12T11:09:08.584Z,10.53
2019-03-12T11:12:11.691Z,10.41
2019-03-12T11:15:14.921Z,10.45
2019-03-12T11:18:18.116Z,10.59
2019-03-12T11:21:21.400Z,10.67
2019-03-12T11:24:24.597Z,10.43
2019-03-12T11:27:27.781Z,10.36
2019-03-12T11:30:30.984Z,10.39
2019-03-12T11:33:34.210Z,10.36
2019-03-12T11:36:37.487Z,10.31
2019-03-12T11:39:40.926Z,10.43
2019-03-12T11:42:43.868Z,10.39
2019-03-12T11:45:47.054Z,10.41
2019-03-12T11:48:50.245Z,10.52
2019-03-12T11:51:53.502Z,10.63
2019-03-12T11:54:56.696Z,10.91
2019-03-12T11:58:00.653Z,11.18
2019-03-12T12:01:05.427Z,11.22
2019-03-12T12:04:08.601Z,11.39
2019-03-12T12:07:11.783Z,11.56
2019-03-12T12:10:15.080Z,11.46
2019-03-12T12:13:19.246Z,11.24
2019-03-12T12:16:23.134Z,11.29
2019-03-12T12:19:26.298Z,11.16
2019-03-12T12:22:29.616Z,11.04
2019-03-12T12:25:32.793Z,10.94
2019-03-12T12:28:36.028Z,10.90
2019-03-12T12:31:39.268Z,10.99
2019-03-12T12:34:42.492Z,11.01
2019-03-12T12:37:45.677Z,10.71
2019-03-12T12:40:48.892Z,10.66
2019-03-12T12:43:52.052Z,10.72
2019-03-12T12:46:55.250Z,10.73
2019-03-12T12:49:58.429Z,10.76
2019-03-12T12:53:01.640Z,10.72
2019-03-12T12:56:04.845Z,10.66
2019-03-12T12:59:08.027Z,10.72
2019-03-12T13:02:11.217Z,10.69
2019-03-12T13:05:14.710Z,10.71
2019-03-12T13:08:17.799Z,10.91
2019-03-12T13:11:20.876Z,10.97
2019-03-12T13:14:24.120Z,11.30
2019-03-12T13:17:27.319Z,11.56
2019-03-12T13:20:30.485Z,11.45
2019-03-12T13:23:36.009Z,11.78
2019-03-12T13:26:36.882Z,12.00
2019-03-12T13:29:40.133Z,12.21
2019-03-12T13:32:43.258Z,12.36
2019-03-12T13:35:49.281Z,12.22
2019-03-12T13:38:49.787Z,12.11
2019-03-12T13:41:52.996Z,12.18
2019-03-12T13:44:56.354Z,12.03
2019-03-12T13:47:59.475Z,11.98
2019-03-12T13:51:02.868Z,11.99
2019-03-12T13:54:09.483Z,12.10
2019-03-12T13:57:09.355Z,12.04
2019-03-12T14:00:15.319Z,12.13
2019-03-12T14:03:18.413Z,12.26
2019-03-12T14:06:21.572Z,12.79
2019-03-12T14:09:24.896Z,12.90
2019-03-12T14:12:28.109Z,13.05
2019-03-12T14:15:31.230Z,13.02
2019-03-12T14:18:34.384Z,13.15
2019-03-12T14:21:40.020Z,12.89
2019-03-12T14:24:43.872Z,12.95
2019-03-12T14:27:47.053Z,12.99
2019-03-12T14:30:50.224Z,12.87
2019-03-12T14:33:53.408Z,12.64
2019-03-12T14:36:56.603Z,12.73
2019-03-12T14:39:59.793Z,12.71
2019-03-12T14:43:02.997Z,12.77
2019-03-12T14:46:06.176Z,12.74
2019-03-12T14:49:09.980Z,12.42
2019-03-12T14:52:19.177Z,12.53
2019-03-12T14:55:22.307Z,12.54
2019-03-12T14:58:25.506Z,12.28
2019-03-12T15:01:28.705Z,12.35
2019-03-12T15:04:31.794Z,12.18
2019-03-12T15:07:34.996Z,12.12
2019-03-12T15:10:38.189Z,12.14
2019-03-12T15:13:41.369Z,12.03
2019-03-12T15:16:44.465Z,12.15
2019-03-12T15:19:47.563Z,12.07
2019-03-12T15:22:50.661Z,12.05
2019-03-12T15:25:53.843Z,12.05
2019-03-12T15:28:57.039Z,12.06
2019-03-12T15:32:04.479Z,11.99
2019-03-12T15:35:03.447Z,12.03
2019-03-12T15:38:06.631Z,11.89
2019-03-12T15:41:09.816Z,11.77
2019-03-12T15:44:12.895Z,11.66
2019-03-12T15:47:16.000Z,11.66
2019-03-12T15:50:19.160Z,11.60
2019-03-12T15:53:22.307Z,11.58
2019-03-12T15:56:25.506Z,11.55
2019-03-12T15:59:28.687Z,11.55
2019-03-12T16:02:31.883Z,11.53
2019-03-12T16:05:35.056Z,11.58
2019-03-12T16:08:39.179Z,11.56
2019-03-12T16:11:42.426Z,11.55
2019-03-12T16:14:45.828Z,11.52
2019-03-12T16:17:48.991Z,11.54
2019-03-12T16:20:52.131Z,11.46
2019-03-12T16:23:55.310Z,11.50
2019-03-12T16:26:58.659Z,11.47
2019-03-12T16:30:01.907Z,11.44
2019-03-12T16:33:05.477Z,11.35
2019-03-12T16:36:08.658Z,11.34
2019-03-12T16:39:11.851Z,11.33
2019-03-12T16:42:14.941Z,11.30
2019-03-12T16:45:18.247Z,11.23
2019-03-12T16:48:21.423Z,11.19
2019-03-12T16:51:24.635Z,11.19
2019-03-12T16:54:27.860Z,11.22
2019-03-12T16:57:31.122Z,11.14
2019-03-12T17:00:34.950Z,11.09
2019-03-12T17:03:38.239Z,11.15
2019-03-12T17:06:41.327Z,11.09
2019-03-12T17:09:44.550Z,11.05
2019-03-12T17:12:47.857Z,10.98
2019-03-12T17:15:54.600Z,10.95
2019-03-12T17:18:54.321Z,10.87
2019-03-12T17:21:57.505Z,10.84
2019-03-12T17:25:00.628Z,10.84
2019-03-12T17:28:03.904Z,10.78
2019-03-12T17:31:07.090Z,10.78
2019-03-12T17:34:10.281Z,10.77
2019-03-12T17:37:13.565Z,10.68
2019-03-12T17:40:18.451Z,10.67
2019-03-12T17:43:21.612Z,10.71
2019-03-12T17:46:24.816Z,10.65
2019-03-12T17:49:27.997Z,10.62
2019-03-12T17:52:31.186Z,10.54
2019-03-12T17:55:34.281Z,10.51
2019-03-12T17:58:37.475Z,10.52
2019-03-12T18:01:40.702Z,10.43
2019-03-12T18:04:43.868Z,10.44
2019-03-12T18:07:47.077Z,10.42
2019-03-12T18:10:50.152Z,10.38
2019-03-12T18:13:53.347Z,10.39
2019-03-12T18:16:56.567Z,10.29
2019-03-12T18:19:59.852Z,10.30
2019-03-12T18:23:03.062Z,10.37
2019-03-12T18:26:08.361Z,10.34
2019-03-12T18:29:11.928Z,10.30
2019-03-12T18:32:15.061Z,10.33
2019-03-12T18:35:18.403Z,10.26
2019-03-12T18:38:21.662Z,10.19
2019-03-12T18:41:24.873Z,10.23
2019-03-12T18:44:28.015Z,10.21
2019-03-12T18:47:31.170Z,10.24
2019-03-12T18:50:34.378Z,10.27
2019-03-12T18:53:37.569Z,10.24
2019-03-12T18:56:40.759Z,10.29
2019-03-12T18:59:43.926Z,10.27
2019-03-12T19:02:47.067Z,10.27
2019-03-12T19:05:50.196Z,10.27
2019-03-12T19:08:53.408Z,10.26
2019-03-12T19:11:56.636Z,10.31
2019-03-12T19:14:59.801Z,10.30
2019-03-12T19:18:03.145Z,10.31
2019-03-12T19:21:06.317Z,10.30
2019-03-12T19:24:09.515Z,10.28
2019-03-12T19:27:12.687Z,10.26
2019-03-12T19:30:15.975Z,10.28
2019-03-12T19:33:19.203Z,10.28
2019-03-12T19:36:22.464Z,10.30
2019-03-12T19:39:25.664Z,10.28
2019-03-12T19:42:28.865Z,10.25
2019-03-12T19:45:32.006Z,10.26
2019-03-12T19:48:35.147Z,10.24
2019-03-12T19:51:38.374Z,10.22
2019-03-12T19:54:41.898Z,10.21
2019-03-12T19:57:45.072Z,10.22
2019-03-12T20:00:48.498Z,10.21
2019-03-12T20:03:51.620Z,10.19
2019-03-12T20:06:55.545Z,10.20
2019-03-12T20:10:15.030Z,10.17
2019-03-12T20:13:30.336Z,10.17
2019-03-12T20:16:44.370Z,10.22
2019-03-12T20:20:19.768Z,10.22
2019-03-12T20:23:46.856Z,10.23
2019-03-12T20:29:11.271Z,10.23
2019-03-12T20:32:27.393Z,10.20
2019-03-12T20:35:46.754Z,10.14
2019-03-12T20:39:11.125Z,10.11
2019-03-12T20:42:23.892Z,10.08
2019-03-12T20:46:05.047Z,10.03
2019-03-12T20:49:18.247Z,10.02
2019-03-12T20:52:35.299Z,10.03
2019-03-12T20:55:57.407Z,9.99
2019-03-12T20:59:11.583Z,10.01
2019-03-12T21:02:42.686Z,9.99
2019-03-12T21:06:03.381Z,9.95
2019-03-12T21:11:22.609Z,9.94
2019-03-12T21:14:46.779Z,9.90
2019-03-12T21:18:05.944Z,9.91
2019-03-12T21:21:33.956Z,9.89
2019-03-12T21:24:50.948Z,9.91
2019-03-12T21:28:07.367Z,9.90
2019-03-12T21:31:10.562Z,9.92
2019-03-12T21:34:13.823Z,9.90
2019-03-12T21:37:17.038Z,9.93
2019-03-12T21:40:20.224Z,9.95
2019-03-12T21:43:23.427Z,9.95
2019-03-12T21:46:26.627Z,9.96
2019-03-12T21:49:29.810Z,9.93
2019-03-12T21:52:33.009Z,9.91
2019-03-12T21:55:37.736Z,9.92
2019-03-12T21:58:39.537Z,9.92
2019-03-12T22:01:42.683Z,9.90
2019-03-12T22:04:45.930Z,9.89
2019-03-12T22:07:49.079Z,9.75
2019-03-12T22:10:52.163Z,9.76
2019-03-12T22:13:55.481Z,10.00
2019-03-12T22:16:59.331Z,10.07
2019-03-12T22:20:02.626Z,10.09
2019-03-12T22:23:10.750Z,10.02
2019-03-12T22:26:13.926Z,9.99
2019-03-12T22:29:17.167Z,9.95
2019-03-12T22:32:20.366Z,10.02
2019-03-12T22:35:23.579Z,10.24
2019-03-12T22:38:26.753Z,10.45
2019-03-12T22:41:29.967Z,10.52
2019-03-12T22:44:33.157Z,10.66
2019-03-12T22:47:36.310Z,10.70
2019-03-12T22:50:39.484Z,10.82
2019-03-12T22:53:42.635Z,10.83
2019-03-12T22:56:45.802Z,10.87
2019-03-12T22:59:48.999Z,11.05
2019-03-12T23:02:52.201Z,11.20
2019-03-12T23:05:55.415Z,11.15
2019-03-12T23:08:58.609Z,11.07
2019-03-12T23:12:01.925Z,11.14
2019-03-12T23:15:05.899Z,11.18
2019-03-12T23:18:09.164Z,11.35
2019-03-12T23:21:12.415Z,11.54
2019-03-12T23:24:15.580Z,11.57
2019-03-12T23:27:18.784Z,11.50
2019-03-12T23:30:21.981Z,11.35
2019-03-12T23:33:25.099Z,11.20
2019-03-12T23:36:28.268Z,11.02
2019-03-12T23:39:31.480Z,10.90
2019-03-12T23:42:34.672Z,10.79
2019-03-12T23:45:37.869Z,10.70
2019-03-12T23:48:41.049Z,10.58
2019-03-12T23:51:44.219Z,10.46
2019-03-12T23:54:48.149Z,10.38
2019-03-12T23:57:51.331Z,10.24
